Time;durP1;ratioP1;P1;durP2;ratioP2;P2;SDS_P1;SDS_P2;PMS_P1;PMS_P2;Temp;Humidity;BMP_temperature;BMP_pressure;BME280_temperature;BME280_humidity;BME280_pressure;Samples;Min_cycle;Max_cycle;Signal;HPM_P1;HPM_P2
2021/12/15 00:02:01;;;;;;;32.03;21.77;;;9.00;99.90;;;;;;5046016;28;20862;-61
2021/12/15 00:04:27;;;;;;;27.17;18.73;;;9.00;99.90;;;;;;5050980;28;20271;-60
2021/12/15 00:06:53;;;;;;;30.90;19.73;;;9.00;99.90;;;;;;5055705;28;20461;-61
2021/12/15 00:09:19;;;;;;;27.73;19.70;;;9.10;99.90;;;;;;5049488;28;20439;-61
2021/12/15 00:11:45;;;;;;;26.80;18.20;;;9.10;99.90;;;;;;5059249;28;20216;-60
2021/12/15 00:14:18;;;;;;;30.27;19.67;;;9.00;99.90;;;;;;5051317;28;20184;-62
2021/12/15 00:16:45;;;;;;;28.40;18.90;;;9.00;99.90;;;;;;5057350;28;20452;-61
2021/12/15 00:19:11;;;;;;;28.80;19.17;;;9.00;99.90;;;;;;5052164;28;20507;-61
2021/12/15 00:21:37;;;;;;;29.97;20.40;;;9.10;99.90;;;;;;5051589;28;20455;-61
2021/12/15 00:24:05;;;;;;;29.37;18.93;;;9.10;99.90;;;;;;5055846;28;20200;-61
2021/12/15 00:26:31;;;;;;;31.17;19.10;;;9.20;99.90;;;;;;5059108;28;20501;-61
2021/12/15 00:28:57;;;;;;;31.07;20.43;;;9.10;99.90;;;;;;5060922;28;20492;-60
2021/12/15 00:31:23;;;;;;;27.10;20.40;;;9.20;99.90;;;;;;5055645;28;20945;-61
2021/12/15 00:33:49;;;;;;;27.33;18.90;;;9.20;99.90;;;;;;5048427;28;20501;-61
2021/12/15 00:36:15;;;;;;;28.00;20.17;;;9.20;99.90;;;;;;5056710;28;20275;-61
2021/12/15 00:38:42;;;;;;;32.23;21.17;;;9.20;99.90;;;;;;5049761;28;20464;-61
2021/12/15 00:41:08;;;;;;;29.13;19.53;;;9.30;99.90;;;;;;5059922;28;20424;-60
2021/12/15 00:43:36;;;;;;;30.80;20.33;;;9.30;99.90;;;;;;5050483;28;20451;-61
2021/12/15 00:46:03;;;;;;;29.87;20.00;;;9.30;99.90;;;;;;5051617;28;20454;-61
2021/12/15 00:48:29;;;;;;;33.50;20.20;;;9.30;99.90;;;;;;5064245;28;20454;-60
2021/12/15 00:50:55;;;;;;;26.27;18.67;;;9.20;99.90;;;;;;5053001;28;20442;-60
2021/12/15 00:53:20;;;;;;;29.20;19.37;;;9.20;99.90;;;;;;5051729;28;20185;-60
2021/12/15 00:55:46;;;;;;;28.70;19.83;;;9.20;99.90;;;;;;5061198;28;20211;-61
2021/12/15 00:58:12;;;;;;;31.47;20.80;;;9.10;99.90;;;;;;5054809;28;20823;-60
2021/12/15 01:00:44;;;;;;;25.90;18.37;;;9.00;99.90;;;;;;5052438;28;20193;-61
2021/12/15 01:03:10;;;;;;;28.93;20.47;;;9.10;99.90;;;;;;5053053;28;20446;-61
2021/12/15 01:05:40;;;;;;;30.93;20.23;;;9.00;99.90;;;;;;5057443;28;20451;-61
2021/12/15 01:08:10;;;;;;;30.60;19.97;;;9.00;99.90;;;;;;5060037;28;20509;-61
2021/12/15 01:21:44;;;;;;;25.20;19.43;;;9.10;99.90;;;;;;5057288;28;20474;-61
2021/12/15 01:24:10;;;;;;;32.43;20.60;;;9.10;99.90;;;;;;5059068;28;20470;-60
2021/12/15 01:26:36;;;;;;;26.73;19.27;;;9.10;99.90;;;;;;5063446;28;20969;-60
2021/12/15 01:29:02;;;;;;;29.03;19.10;;;9.10;99.90;;;;;;5062160;28;20470;-61
2021/12/15 01:31:28;;;;;;;26.40;20.10;;;;;;;;;;5058253;28;20216;-61
2021/12/15 01:33:54;;;;;;;28.30;19.87;;;9.00;99.90;;;;;;5055232;28;20711;-60
2021/12/15 01:36:21;;;;;;;27.93;18.83;;;9.10;99.90;;;;;;5059201;28;20417;-60
2021/12/15 01:38:47;;;;;;;26.17;19.60;;;9.20;99.90;;;;;;5054630;28;20454;-61
2021/12/15 01:41:20;;;;;;;31.40;20.40;;;9.20;99.90;;;;;;5048267;28;20196;-61
2021/12/15 01:46:54;;;;;;;26.30;18.63;;;9.10;99.90;;;;;;5052247;28;20428;-60
2021/12/15 01:49:31;;;;;;;29.23;19.60;;;9.20;99.90;;;;;;5054360;28;20434;-61
2021/12/15 01:52:02;;;;;;;28.73;18.70;;;9.10;99.90;;;;;;5059225;28;20459;-60
2021/12/15 01:54:29;;;;;;;26.33;19.13;;;9.10;99.90;;;;;;5051412;28;20450;-61
2021/12/15 01:56:55;;;;;;;27.40;20.20;;;9.00;99.90;;;;;;5053036;28;20966;-60
2021/12/15 01:59:23;;;;;;;27.20;19.00;;;9.00;99.90;;;;;;5056868;28;20474;-61
2021/12/15 02:01:49;;;;;;;24.87;19.27;;;9.00;99.90;;;;;;5058679;28;20176;-60
2021/12/15 02:04:16;;;;;;;29.23;20.63;;;9.00;99.90;;;;;;5063194;28;20453;-60
2021/12/15 02:06:44;;;;;;;26.80;18.83;;;9.10;99.90;;;;;;5049413;28;20451;-60
2021/12/15 02:09:12;;;;;;;29.20;19.80;;;9.10;99.90;;;;;;5060869;28;20499;-60
2021/12/15 02:11:38;;;;;;;30.57;21.80;;;9.10;99.90;;;;;;5060957;28;20471;-60
2021/12/15 02:14:04;;;;;;;27.00;20.67;;;9.20;99.90;;;;;;5052307;28;20439;-60
2021/12/15 02:16:29;;;;;;;28.37;19.10;;;9.20;99.90;;;;;;5049782;28;20678;-60
2021/12/15 02:18:55;;;;;;;31.00;19.10;;;9.20;99.90;;;;;;5049677;28;20630;-60
2021/12/15 02:21:24;;;;;;;28.67;17.43;;;9.10;99.90;;;;;;5053106;28;20303;-61
2021/12/15 02:23:54;;;;;;;29.17;19.23;;;9.10;99.90;;;;;;5055090;28;20462;-61
2021/12/15 02:26:35;;;;;;;26.50;19.07;;;9.10;99.90;;;;;;5059439;28;20523;-59
2021/12/15 02:29:05;;;;;;;28.57;18.83;;;9.10;99.90;;;;;;5054128;28;20474;-60
2021/12/15 02:31:41;;;;;;;30.93;19.63;;;9.10;99.90;;;;;;5052427;28;20452;-59
2021/12/15 02:37:15;;;;;;;29.80;20.47;;;9.00;99.90;;;;;;5063598;28;20440;-61
2021/12/15 02:39:43;;;;;;;28.20;18.60;;;8.90;99.90;;;;;;5057870;28;20485;-61
2021/12/15 02:42:09;;;;;;;27.70;18.77;;;8.90;99.90;;;;;;5062024;28;20430;-61
2021/12/15 02:44:35;;;;;;;29.30;21.07;;;8.90;99.90;;;;;;5058376;28;20425;-61
2021/12/15 02:47:01;;;;;;;27.70;19.00;;;8.90;99.90;;;;;;5052698;28;20181;-60
2021/12/15 02:49:28;;;;;;;26.67;18.93;;;9.00;99.90;;;;;;5059560;28;20450;-60
2021/12/15 02:52:00;;;;;;;26.60;19.60;;;9.00;99.90;;;;;;5050603;28;20488;-60
2021/12/15 02:54:27;;;;;;;29.73;18.97;;;8.90;99.90;;;;;;5059731;28;20466;-60
2021/12/15 02:56:54;;;;;;;26.20;19.20;;;8.80;99.90;;;;;;5057703;28;20850;-60
2021/12/15 02:59:29;;;;;;;25.63;18.27;;;8.80;99.90;;;;;;5053577;28;20795;-60
2021/12/15 03:05:03;;;;;;;25.83;17.67;;;8.70;99.90;;;;;;5047980;28;20454;-60
2021/12/15 03:15:35;;;;;;;26.27;19.27;;;8.60;99.90;;;;;;5054584;28;20502;-60
2021/12/15 03:18:12;;;;;;;26.30;18.07;;;8.60;99.90;;;;;;5054069;28;20443;-60
2021/12/15 03:20:54;;;;;;;25.53;17.60;;;8.60;99.90;;;;;;5053967;28;21755;-61
2021/12/15 03:23:27;;;;;;;27.63;16.83;;;8.70;99.90;;;;;;5056743;28;20454;-60
2021/12/15 03:25:53;;;;;;;26.97;18.77;;;;;;;;;;5049381;28;20949;-61
2021/12/15 03:36:51;;;;;;;24.37;17.70;;;8.90;99.90;;;;;;5053102;28;20533;-60
2021/12/15 03:39:17;;;;;;;26.33;17.33;;;9.00;99.90;;;;;;5052771;28;20857;-60
2021/12/15 03:41:43;;;;;;;22.90;15.50;;;9.00;99.90;;;;;;5060490;28;20976;-61
2021/12/15 03:44:08;;;;;;;24.87;18.37;;;9.00;99.90;;;;;;5057944;28;20447;-61
2021/12/15 03:46:34;;;;;;;27.73;17.97;;;9.00;99.90;;;;;;5051232;28;20198;-61
2021/12/15 03:49:00;;;;;;;22.57;17.13;;;9.00;99.90;;;;;;5051556;28;20194;-61
2021/12/15 03:51:26;;;;;;;22.80;16.73;;;9.00;99.90;;;;;;5057101;28;20188;-61
2021/12/15 03:53:52;;;;;;;21.90;16.53;;;9.00;99.90;;;;;;5056736;28;20939;-60
2021/12/15 03:56:18;;;;;;;23.07;16.60;;;9.10;99.90;;;;;;5046568;28;20762;-60
2021/12/15 03:58:46;;;;;;;26.63;18.00;;;9.20;99.90;;;;;;5040115;28;20195;-60
2021/12/15 04:01:15;;;;;;;25.27;17.00;;;9.20;99.90;;;;;;5057199;28;20593;-60
2021/12/15 04:03:47;;;;;;;26.77;17.37;;;9.20;99.90;;;;;;5056264;28;20420;-61
2021/12/15 04:06:25;;;;;;;23.10;15.70;;;9.20;99.90;;;;;;5050125;28;20443;-61
2021/12/15 04:08:50;;;;;;;24.83;16.77;;;9.20;99.90;;;;;;5044166;28;20469;-60
2021/12/15 04:11:23;;;;;;;22.37;15.73;;;9.20;99.90;;;;;;5054424;28;20469;-60
2021/12/15 04:13:49;;;;;;;24.07;17.10;;;9.10;99.90;;;;;;5060935;28;20180;-61
2021/12/15 04:19:20;;;;;;;20.80;14.77;;;9.00;99.90;;;;;;5064980;28;20449;-61
2021/12/15 04:21:47;;;;;;;24.37;15.40;;;9.00;99.90;;;;;;5044151;28;20464;-61
2021/12/15 04:24:15;;;;;;;24.17;16.53;;;9.00;99.90;;;;;;5045601;28;20443;-61
2021/12/15 04:26:41;;;;;;;26.97;14.80;;;9.00;99.90;;;;;;5055315;28;20997;-61
2021/12/15 04:29:07;;;;;;;23.17;15.30;;;;;;;;;;5049639;28;21000;-60
2021/12/15 04:31:37;;;;;;;23.37;16.00;;;8.90;99.90;;;;;;5055360;28;20462;-60
2021/12/15 04:34:08;;;;;;;23.63;15.67;;;9.00;99.90;;;;;;5041623;28;20455;-60
2021/12/15 04:36:40;;;;;;;18.10;13.43;;;9.00;99.90;;;;;;5040496;28;20466;-60
2021/12/15 04:39:09;;;;;;;21.10;15.40;;;9.00;99.90;;;;;;5040652;28;20547;-60
2021/12/15 04:41:35;;;;;;;19.43;13.90;;;9.00;99.90;;;;;;5042520;28;20454;-60
2021/12/15 04:44:09;;;;;;;21.07;13.97;;;9.00;99.90;;;;;;5040627;28;20745;-60
2021/12/15 04:46:37;;;;;;;16.97;11.60;;;9.00;99.90;;;;;;5041183;28;20822;-60
2021/12/15 04:49:04;;;;;;;13.77;9.70;;;;;;;;;;5046212;28;20449;-60
2021/12/15 04:51:30;;;;;;;16.80;12.63;;;9.20;58.30;;;;;;5045396;28;20493;-62
2021/12/15 04:53:57;;;;;;;19.00;12.70;;;9.20;80.10;;;;;;5048279;28;20944;-61
2021/12/15 04:56:25;;;;;;;17.87;12.97;;;9.20;85.00;;;;;;5047622;28;20188;-61
2021/12/15 04:58:53;;;;;;;9.30;7.20;;;9.30;44.90;;;;;;5051661;28;20446;-61
2021/12/15 05:01:19;;;;;;;9.87;7.90;;;9.30;20.50;;;;;;5050848;28;20450;-60
2021/12/15 05:03:45;;;;;;;9.67;6.57;;;9.40;21.70;;;;;;5052173;28;20450;-62
2021/12/15 05:06:11;;;;;;;10.73;6.90;;;9.50;4.50;;;;;;5052493;28;20651;-60
2021/12/15 05:08:39;;;;;;;8.27;6.20;;;9.60;1.00;;;;;;5057791;28;20538;-59
2021/12/15 05:11:06;;;;;;;8.90;5.73;;;9.60;1.00;;;;;;5056734;28;20958;-59
2021/12/15 05:13:32;;;;;;;8.13;5.27;;;9.50;1.00;;;;;;5055742;28;20413;-59
2021/12/15 05:15:59;;;;;;;7.77;6.10;;;9.60;1.00;;;;;;5051683;28;20453;-59
2021/12/15 05:18:25;;;;;;;8.70;5.57;;;9.80;1.00;;;;;;5049249;28;20499;-59
2021/12/15 05:20:53;;;;;;;7.80;5.80;;;9.60;1.00;;;;;;5049341;28;20501;-59
2021/12/15 05:23:19;;;;;;;8.57;5.63;;;9.60;1.00;;;;;;5051402;28;20441;-58
2021/12/15 05:25:47;;;;;;;7.80;6.00;;;9.80;1.00;;;;;;5052238;28;20431;-58
2021/12/15 05:28:13;;;;;;;10.33;6.00;;;9.80;1.00;;;;;;5052213;28;20521;-56
2021/12/15 05:30:39;;;;;;;5.83;5.00;;;;;;;;;;5052289;28;20980;-58
2021/12/15 05:33:05;;;;;;;8.30;5.70;;;9.80;1.00;;;;;;5052209;28;20925;-58
2021/12/15 05:35:33;;;;;;;10.70;6.10;;;9.70;1.00;;;;;;5050794;28;20473;-58
2021/12/15 05:38:00;;;;;;;7.90;5.70;;;9.80;1.00;;;;;;5051026;28;20402;-57
2021/12/15 05:40:28;;;;;;;7.73;5.47;;;9.70;1.00;;;;;;5051966;28;20458;-58
2021/12/15 05:42:56;;;;;;;9.07;6.00;;;9.60;1.00;;;;;;5053028;28;20429;-58
2021/12/15 05:45:30;;;;;;;7.73;5.70;;;9.60;1.00;;;;;;5055727;28;20402;-57
2021/12/15 05:47:57;;;;;;;7.17;5.20;;;9.70;1.00;;;;;;5055470;28;20430;-58
2021/12/15 05:50:25;;;;;;;8.70;5.33;;;9.70;1.00;;;;;;5055269;28;20473;-58
2021/12/15 05:52:51;;;;;;;6.43;5.03;;;9.60;1.00;;;;;;5055348;28;20470;-58
2021/12/15 05:55:18;;;;;;;8.40;5.87;;;9.50;1.00;;;;;;5055463;28;20434;-58
2021/12/15 05:57:44;;;;;;;9.03;6.57;;;9.50;1.00;;;;;;5055266;28;20180;-58
2021/12/15 06:00:15;;;;;;;8.47;6.33;;;9.60;1.00;;;;;;5055440;28;20431;-58
2021/12/15 06:02:41;;;;;;;7.37;5.23;;;9.60;1.00;;;;;;5055143;28;20530;-59
2021/12/15 06:05:08;;;;;;;9.57;7.13;;;9.50;1.00;;;;;;5055310;28;20457;-58
2021/12/15 06:07:34;;;;;;;8.67;6.17;;;;;;;;;;5054975;28;20521;-59
2021/12/15 06:10:00;;;;;;;9.20;5.83;;;9.40;1.00;;;;;;5054903;28;20409;-58
2021/12/15 06:12:26;;;;;;;7.83;5.80;;;9.40;1.00;;;;;;5054991;28;20464;-58
2021/12/15 06:14:52;;;;;;;6.53;5.33;;;9.40;1.00;;;;;;5054785;28;20200;-58
2021/12/15 06:17:24;;;;;;;9.10;6.40;;;9.40;1.00;;;;;;5053701;28;20180;-58
2021/12/15 06:19:50;;;;;;;9.23;5.80;;;9.40;1.00;;;;;;5054815;28;20427;-58
2021/12/15 06:22:19;;;;;;;11.03;6.23;;;9.40;1.00;;;;;;5054872;28;20433;-58
2021/12/15 06:24:45;;;;;;;8.80;6.40;;;;;;;;;;5054603;28;20928;-57
2021/12/15 06:27:17;;;;;;;8.83;6.07;;;9.50;1.00;;;;;;5054543;28;20511;-59
2021/12/15 06:29:43;;;;;;;11.50;5.43;;;9.50;1.00;;;;;;5054904;28;20470;-59
2021/12/15 06:32:09;;;;;;;9.40;6.23;;;9.40;1.00;;;;;;5073404;28;20469;-60
2021/12/15 06:34:35;;;;;;;8.50;6.13;;;9.50;1.00;;;;;;5074608;28;20743;-59
2021/12/15 06:37:01;;;;;;;9.10;6.00;;;9.40;1.00;;;;;;5074820;28;20184;-60
2021/12/15 06:39:26;;;;;;;13.27;6.33;;;9.40;1.00;;;;;;5069538;28;20201;-59
2021/12/15 06:41:52;;;;;;;10.50;8.10;;;9.50;1.00;;;;;;5054191;28;20466;-58
2021/12/15 06:44:18;;;;;;;11.47;8.33;;;9.50;1.00;;;;;;5054382;28;20558;-59
2021/12/15 06:59:54;;;;;;;8.53;5.33;;;9.70;1.00;;;;;;5053986;28;20430;-59
2021/12/15 07:02:21;;;;;;;7.33;5.67;;;9.60;1.00;;;;;;5053938;28;20793;-58
2021/12/15 07:04:46;;;;;;;7.80;6.17;;;9.80;1.00;;;;;;5052711;28;20180;-60
2021/12/15 07:07:12;;;;;;;6.30;4.90;;;9.70;1.00;;;;;;5052915;28;20804;-60
2021/12/15 07:09:38;;;;;;;7.00;5.40;;;9.80;1.00;;;;;;5051781;28;20180;-61
2021/12/15 07:12:04;;;;;;;8.90;5.70;;;9.80;1.00;;;;;;5050706;28;20200;-60
2021/12/15 07:14:31;;;;;;;6.90;5.00;;;9.80;1.00;;;;;;5052682;28;20506;-60
2021/12/15 07:16:58;;;;;;;7.43;5.23;;;9.80;1.00;;;;;;5052552;28;20424;-60
2021/12/15 07:24:38;;;;;;;8.83;5.60;;;9.70;1.00;;;;;;5058051;28;20567;-60
2021/12/15 07:27:05;;;;;;;7.83;5.37;;;9.70;1.00;;;;;;5054006;28;20488;-59
2021/12/15 07:29:31;;;;;;;6.87;4.67;;;9.80;1.00;;;;;;5064214;28;20447;-61
2021/12/15 07:31:58;;;;;;;7.00;5.13;;;9.80;1.00;;;;;;5058175;28;20529;-60
2021/12/15 07:34:24;;;;;;;10.17;5.17;;;9.90;1.00;;;;;;5048139;28;20447;-59
2021/12/15 07:36:50;;;;;;;9.33;5.80;;;9.90;1.00;;;;;;5050467;28;20808;-59
2021/12/15 07:39:16;;;;;;;6.93;4.40;;;9.90;1.00;;;;;;5050178;28;20503;-60
2021/12/15 07:41:50;;;;;;;7.20;5.07;;;9.90;1.00;;;;;;5050063;28;20476;-60
2021/12/15 07:44:18;;;;;;;8.27;5.00;;;10.00;1.00;;;;;;5047176;28;20450;-61
2021/12/15 07:46:44;;;;;;;8.53;4.63;;;10.10;1.00;;;;;;5048213;28;20577;-60
2021/12/15 07:49:10;;;;;;;7.20;5.50;;;9.90;1.00;;;;;;5045549;28;20442;-61
2021/12/15 07:51:37;;;;;;;8.20;5.13;;;10.10;1.00;;;;;;5045007;28;20470;-60
2021/12/15 07:54:03;;;;;;;6.03;4.07;;;10.10;1.00;;;;;;5048798;28;20589;-61
2021/12/15 07:56:29;;;;;;;8.90;4.87;;;10.10;1.00;;;;;;5048504;28;20443;-61
2021/12/15 07:58:54;;;;;;;6.17;4.40;;;10.00;1.00;;;;;;5050032;28;20835;-61
2021/12/15 08:01:22;;;;;;;8.33;5.97;;;10.00;1.00;;;;;;5053556;28;20424;-60
2021/12/15 08:03:51;;;;;;;7.77;4.80;;;10.00;1.00;;;;;;5056593;28;20195;-61
2021/12/15 08:06:18;;;;;;;6.37;4.10;;;10.10;1.00;;;;;;5067391;28;20478;-59
2021/12/15 08:08:44;;;;;;;7.57;5.17;;;10.20;1.00;;;;;;5059203;28;20779;-60
2021/12/15 08:11:10;;;;;;;7.17;5.03;;;10.40;1.00;;;;;;5061004;28;20447;-60
2021/12/15 08:13:36;;;;;;;5.97;4.40;;;10.30;1.00;;;;;;5063038;28;20184;-60
2021/12/15 08:16:03;;;;;;;7.23;4.60;;;10.40;1.00;;;;;;5050230;28;20580;-60
2021/12/15 08:18:29;;;;;;;6.50;4.60;;;10.40;1.00;;;;;;5059759;28;20438;-61
2021/12/15 08:20:55;;;;;;;5.23;3.87;;;10.50;1.00;;;;;;5056266;28;20425;-60
2021/12/15 08:23:21;;;;;;;6.13;4.40;;;10.40;1.00;;;;;;5065339;28;20438;-60
2021/12/15 08:25:47;;;;;;;6.13;4.43;;;10.50;1.00;;;;;;5069963;28;20792;-59
2021/12/15 08:28:13;;;;;;;5.83;3.90;;;10.50;1.00;;;;;;5051678;28;20441;-59
2021/12/15 08:30:41;;;;;;;6.97;4.90;;;10.50;1.00;;;;;;5068430;28;20216;-60
2021/12/15 08:33:12;;;;;;;6.40;4.17;;;10.60;1.00;;;;;;5054669;28;20442;-59
2021/12/15 08:35:45;;;;;;;6.93;4.50;;;10.60;1.00;;;;;;5055944;28;20966;-60
2021/12/15 08:38:12;;;;;;;5.90;4.10;;;10.70;1.00;;;;;;5054968;28;20476;-60
2021/12/15 08:40:40;;;;;;;6.87;4.93;;;10.70;1.00;;;;;;5060902;28;20434;-61
2021/12/15 08:43:07;;;;;;;10.60;4.00;;;10.70;1.00;;;;;;5055426;28;20454;-60
2021/12/15 08:45:35;;;;;;;7.47;5.27;;;10.70;1.00;;;;;;5050946;28;20417;-61
2021/12/15 08:48:02;;;;;;;5.73;4.50;;;10.60;1.00;;;;;;5052535;28;20480;-61
2021/12/15 08:50:31;;;;;;;6.67;5.30;;;10.60;1.00;;;;;;5051927;28;20419;-60
2021/12/15 08:52:57;;;;;;;5.50;4.23;;;10.50;1.00;;;;;;5051783;28;20463;-60
2021/12/15 08:55:24;;;;;;;5.30;4.60;;;10.50;1.00;;;;;;5051431;28;20596;-60
2021/12/15 08:57:53;;;;;;;7.07;4.30;;;10.50;1.00;;;;;;5051746;28;20435;-60
2021/12/15 09:00:21;;;;;;;9.53;5.17;;;10.50;1.00;;;;;;5065112;28;20416;-61
2021/12/15 09:02:49;;;;;;;6.40;4.77;;;10.50;1.00;;;;;;5050801;28;20521;-61
2021/12/15 09:05:21;;;;;;;6.57;4.23;;;10.60;1.00;;;;;;5051340;28;20442;-59
2021/12/15 09:07:53;;;;;;;5.07;4.13;;;10.80;1.00;;;;;;5051330;28;20413;-58
2021/12/15 09:10:21;;;;;;;8.13;5.03;;;10.80;1.00;;;;;;5050464;28;20438;-61
2021/12/15 09:12:47;;;;;;;4.73;4.23;;;10.80;1.00;;;;;;5052486;28;20495;-59
2021/12/15 09:15:13;;;;;;;5.33;4.03;;;10.90;1.00;;;;;;5070057;28;20467;-60
2021/12/15 09:17:39;;;;;;;5.43;4.10;;;10.90;1.00;;;;;;5054672;28;20700;-60
2021/12/15 09:20:12;;;;;;;6.00;4.90;;;10.90;1.00;;;;;;5059953;28;20425;-60
2021/12/15 09:22:39;;;;;;;6.93;4.00;;;11.00;1.00;;;;;;5063398;28;20428;-61
2021/12/15 09:25:08;;;;;;;5.27;3.80;;;11.00;1.00;;;;;;5058671;28;20499;-60
2021/12/15 09:27:33;;;;;;;4.73;4.00;;;11.00;1.00;;;;;;5059120;28;20442;-60
2021/12/15 09:29:59;;;;;;;4.87;4.03;;;11.20;1.00;;;;;;5062125;28;20492;-60
2021/12/15 09:32:24;;;;;;;6.20;4.80;;;11.10;1.00;;;;;;5057352;28;20231;-60
2021/12/15 09:34:50;;;;;;;6.63;5.17;;;11.10;1.00;;;;;;5054993;28;20184;-61
2021/12/15 09:37:18;;;;;;;5.70;4.17;;;11.00;1.00;;;;;;5066828;28;20275;-60
2021/12/15 09:39:44;;;;;;;5.17;3.90;;;11.00;1.00;;;;;;5056946;28;20270;-60
2021/12/15 09:42:10;;;;;;;6.50;4.17;;;11.10;1.00;;;;;;5054354;28;20443;-60
2021/12/15 09:44:36;;;;;;;5.80;4.67;;;11.10;1.00;;;;;;5066331;28;20188;-61
2021/12/15 09:47:11;;;;;;;5.43;4.10;;;11.20;1.00;;;;;;5055577;28;20242;-61
2021/12/15 10:03:31;;;;;;;6.00;4.90;;;11.40;1.00;;;;;;5064283;28;20918;-59
2021/12/15 10:11:44;;;;;;;5.80;5.00;;;11.20;1.00;;;;;;5063338;28;20816;-60
2021/12/15 10:19:47;;;;;;;9.37;4.70;;;11.30;1.00;;;;;;5070123;28;20919;-61
2021/12/15 10:22:27;;;;;;;5.80;4.30;;;11.40;1.00;;;;;;5062015;28;20474;-60
2021/12/15 10:24:56;;;;;;;5.20;4.67;;;11.40;1.00;;;;;;5071367;28;20451;-62
2021/12/15 10:27:36;;;;;;;7.33;5.30;;;11.40;1.00;;;;;;5069518;28;20443;-62
2021/12/15 10:30:10;;;;;;;5.93;4.83;;;11.50;1.00;;;;;;5053039;28;20463;-63
2021/12/15 10:32:39;;;;;;;5.37;4.67;;;11.50;1.00;;;;;;5059612;28;20467;-61
2021/12/15 10:35:17;;;;;;;7.87;5.13;;;11.60;1.00;;;;;;5061288;28;20405;-61
2021/12/15 10:38:18;;;;;;;8.23;5.40;;;11.70;1.00;;;;;;5062064;28;20441;-61
2021/12/15 10:41:13;;;;;;;6.63;4.73;;;11.90;1.00;;;;;;5052385;28;20604;-61
2021/12/15 10:43:48;;;;;;;5.73;4.40;;;11.70;1.00;;;;;;5056416;28;20425;-61
2021/12/15 10:46:22;;;;;;;7.70;5.23;;;11.70;1.00;;;;;;5057759;28;20413;-63
2021/12/15 10:48:49;;;;;;;5.83;4.53;;;11.80;1.00;;;;;;5057521;28;20465;-62
2021/12/15 10:51:24;;;;;;;5.63;4.47;;;11.90;1.00;;;;;;5055537;28;20488;-61
2021/12/15 10:53:51;;;;;;;6.80;3.93;;;11.80;1.00;;;;;;5065953;28;20425;-61
2021/12/15 10:56:20;;;;;;;5.50;3.70;;;11.90;1.00;;;;;;5063807;28;20441;-61
2021/12/15 10:58:52;;;;;;;6.03;4.33;;;12.10;1.00;;;;;;5055519;28;20866;-60
2021/12/15 11:01:40;;;;;;;5.60;4.47;;;12.10;1.00;;;;;;5061266;28;20465;-61
2021/12/15 11:04:24;;;;;;;7.00;4.30;;;12.10;1.00;;;;;;5056137;28;20772;-62
2021/12/15 11:07:29;;;;;;;5.87;4.37;;;11.90;1.00;;;;;;5058319;28;20452;-61
2021/12/15 11:10:00;;;;;;;5.80;4.10;;;12.00;1.00;;;;;;5057791;28;20759;-61
2021/12/15 11:12:45;;;;;;;5.97;4.63;;;12.00;1.00;;;;;;5070911;28;21006;-61
2021/12/15 11:15:14;;;;;;;5.67;4.17;;;12.00;1.00;;;;;;5071084;28;20492;-62
2021/12/15 11:17:48;;;;;;;6.00;4.20;;;11.80;1.00;;;;;;5057664;28;20956;-62
2021/12/15 11:20:39;;;;;;;3.50;3.20;;;11.70;1.00;;;;;;5058679;28;20417;-61
2021/12/15 11:23:15;;;;;;;9.67;5.20;;;11.80;1.00;;;;;;5062179;28;20451;-61
2021/12/15 11:25:52;;;;;;;5.97;4.30;;;11.90;1.00;;;;;;5054273;28;20442;-59
2021/12/15 11:28:28;;;;;;;6.20;4.17;;;11.90;1.00;;;;;;5053591;28;20443;-60
2021/12/15 11:31:06;;;;;;;6.30;5.17;;;11.80;1.00;;;;;;5060151;28;20422;-61
2021/12/15 11:33:33;;;;;;;7.40;4.87;;;11.90;1.00;;;;;;5054094;28;20492;-60
2021/12/15 11:36:10;;;;;;;6.57;4.40;;;11.80;1.00;;;;;;5061774;28;20492;-61
2021/12/15 11:38:40;;;;;;;7.17;4.70;;;11.80;1.00;;;;;;5068620;28;20939;-60
2021/12/15 11:41:27;;;;;;;6.23;4.93;;;;;;;;;;5064091;28;20457;-60
2021/12/15 11:44:06;;;;;;;7.23;5.63;;;11.50;1.00;;;;;;5057354;28;20429;-61
2021/12/15 11:46:40;;;;;;;6.83;5.20;;;11.50;1.00;;;;;;5064488;28;20424;-61
2021/12/15 11:49:23;;;;;;;7.37;4.93;;;11.50;1.00;;;;;;5056809;28;20471;-60
2021/12/15 11:51:51;;;;;;;7.17;5.30;;;11.50;1.00;;;;;;5052688;28;20526;-61
2021/12/15 11:54:28;;;;;;;6.00;4.83;;;11.00;1.00;;;;;;5059793;28;20494;-60
2021/12/15 11:57:02;;;;;;;4.87;4.10;;;10.90;1.00;;;;;;5061774;28;20454;-61
2021/12/15 11:59:42;;;;;;;7.90;5.30;;;10.90;1.00;;;;;;5070602;28;20426;-60
2021/12/15 12:02:24;;;;;;;6.73;5.27;;;10.90;1.00;;;;;;5051926;28;20544;-61
2021/12/15 12:05:04;;;;;;;5.87;4.50;;;10.90;1.00;;;;;;5053698;28;20666;-62
2021/12/15 12:07:41;;;;;;;6.50;4.70;;;10.80;1.00;;;;;;5064561;28;20439;-60
2021/12/15 12:10:30;;;;;;;6.83;6.00;;;10.60;1.00;;;;;;5046801;28;20778;-60
2021/12/15 12:13:11;;;;;;;9.23;6.03;;;10.70;1.00;;;;;;5057823;28;20470;-60
2021/12/15 12:15:40;;;;;;;7.20;5.50;;;10.70;1.00;;;;;;5066819;28;20522;-60
2021/12/15 12:18:12;;;;;;;7.93;5.63;;;10.70;1.00;;;;;;5058255;28;20449;-60
2021/12/15 12:20:45;;;;;;;9.00;5.83;;;10.70;1.00;;;;;;5063617;28;20476;-60
2021/12/15 12:23:14;;;;;;;6.87;5.60;;;10.60;1.00;;;;;;5045455;28;20520;-61
2021/12/15 12:25:47;;;;;;;8.10;6.23;;;10.70;1.00;;;;;;5057780;28;20435;-60
2021/12/15 12:28:16;;;;;;;7.77;6.20;;;10.60;1.00;;;;;;5058439;28;20416;-64
2021/12/15 12:30:45;;;;;;;9.03;5.70;;;10.50;1.00;;;;;;5055275;28;20449;-60
2021/12/15 12:33:13;;;;;;;8.43;6.20;;;10.40;1.00;;;;;;5062219;28;20446;-59
2021/12/15 12:35:46;;;;;;;8.00;6.27;;;10.30;1.00;;;;;;5062414;28;20434;-64
2021/12/15 12:38:16;;;;;;;8.03;7.17;;;10.30;3.40;;;;;;5062151;28;20757;-60
2021/12/15 12:40:57;;;;;;;10.53;6.50;;;10.20;11.70;;;;;;5048829;28;20814;-61
2021/12/15 12:43:28;;;;;;;9.57;7.87;;;10.20;11.20;;;;;;5054623;28;20439;-60
2021/12/15 12:46:09;;;;;;;9.87;6.80;;;10.30;9.40;;;;;;5055086;28;20449;-61
2021/12/15 12:48:50;;;;;;;10.00;7.70;;;10.30;7.80;;;;;;5049586;28;20793;-61
2021/12/15 12:59:34;;;;;;;8.13;6.63;;;10.30;13.40;;;;;;5060050;28;20442;-60
2021/12/15 13:02:04;;;;;;;9.10;7.30;;;10.30;14.90;;;;;;5056722;28;20428;-59
2021/12/15 13:04:42;;;;;;;10.17;7.33;;;10.30;13.00;;;;;;5057823;28;20424;-60
2021/12/15 13:07:09;;;;;;;7.93;6.30;;;10.40;11.40;;;;;;5052933;28;20486;-59
2021/12/15 13:09:50;;;;;;;8.23;6.30;;;10.50;9.50;;;;;;5054297;28;20405;-60
2021/12/15 13:12:22;;;;;;;9.10;6.50;;;10.50;4.00;;;;;;5059089;28;20433;-60
2021/12/15 13:14:48;;;;;;;7.10;6.17;;;10.60;3.10;;;;;;5067161;28;20448;-60
2021/12/15 13:17:26;;;;;;;9.53;7.80;;;10.70;1.00;;;;;;5053135;28;20880;-60
2021/12/15 13:19:54;;;;;;;6.80;6.10;;;10.80;1.00;;;;;;5051196;28;20231;-61
2021/12/15 13:30:47;;;;;;;7.97;5.87;;;10.70;1.00;;;;;;5053269;28;20429;-62
2021/12/15 13:33:27;;;;;;;11.03;7.23;;;10.60;1.00;;;;;;5052267;28;20438;-60
2021/12/15 13:35:56;;;;;;;9.20;6.50;;;10.60;1.00;;;;;;5053536;28;20798;-60
2021/12/15 13:39:07;;;;;;;7.60;6.30;;;10.60;1.00;;;;;;5052611;28;20434;-62
2021/12/15 13:41:59;;;;;;;8.07;6.23;;;10.60;1.00;;;;;;5043616;28;20429;-60
2021/12/15 13:44:35;;;;;;;7.40;5.87;;;10.60;1.00;;;;;;5053223;28;20435;-62
2021/12/15 13:47:07;;;;;;;6.63;5.97;;;10.70;1.00;;;;;;5051873;28;20628;-60
2021/12/15 13:49:38;;;;;;;7.23;5.60;;;10.80;1.00;;;;;;5052864;28;20413;-60
2021/12/15 13:52:10;;;;;;;8.40;6.23;;;10.90;1.00;;;;;;5051965;28;20520;-63
2021/12/15 13:54:35;;;;;;;7.60;5.90;;;11.00;1.00;;;;;;5052898;28;20422;-61
2021/12/15 13:57:13;;;;;;;6.80;5.93;;;11.00;1.00;;;;;;5053592;28;20485;-61
2021/12/15 13:59:46;;;;;;;6.37;4.93;;;11.00;1.00;;;;;;5052671;28;20180;-61
2021/12/15 14:02:30;;;;;;;7.20;5.53;;;11.00;1.00;;;;;;5051668;28;20500;-61
2021/12/15 14:04:59;;;;;;;6.40;5.30;;;11.00;1.00;;;;;;5052042;28;20944;-61
2021/12/15 14:07:31;;;;;;;6.90;6.23;;;11.10;1.00;;;;;;5060549;28;20767;-60
2021/12/15 14:09:58;;;;;;;7.23;4.67;;;11.00;1.00;;;;;;5072862;28;20409;-61
2021/12/15 14:12:45;;;;;;;5.33;4.70;;;11.10;1.00;;;;;;5072727;28;20457;-62
2021/12/15 14:15:14;;;;;;;6.27;5.47;;;11.00;1.00;;;;;;5071343;28;20437;-61
2021/12/15 14:17:40;;;;;;;9.53;5.30;;;11.00;1.00;;;;;;5072230;28;20934;-61
2021/12/15 14:20:14;;;;;;;8.23;4.53;;;11.20;1.00;;;;;;5072693;28;20430;-62
2021/12/15 14:22:41;;;;;;;10.73;5.30;;;11.30;1.00;;;;;;5072510;28;20408;-61
2021/12/15 14:25:08;;;;;;;7.30;5.10;;;11.10;1.00;;;;;;5072942;28;20487;-60
2021/12/15 14:27:33;;;;;;;5.50;5.00;;;11.10;1.00;;;;;;5072584;28;20457;-62
2021/12/15 14:29:59;;;;;;;5.50;4.87;;;11.00;1.00;;;;;;5068945;28;20437;-61
2021/12/15 14:32:26;;;;;;;5.67;5.07;;;11.00;1.00;;;;;;5052473;28;20200;-63
2021/12/15 14:34:53;;;;;;;5.90;4.73;;;11.00;1.00;;;;;;5050246;28;20653;-60
2021/12/15 14:37:20;;;;;;;5.13;4.63;;;11.00;1.00;;;;;;5052280;28;20443;-63
2021/12/15 14:39:49;;;;;;;5.77;5.27;;;11.10;1.00;;;;;;5052130;28;20447;-61
2021/12/15 14:42:23;;;;;;;5.77;4.53;;;11.00;1.00;;;;;;5052362;28;20469;-60
2021/12/15 14:44:52;;;;;;;5.03;4.30;;;10.90;1.00;;;;;;5052027;28;20438;-62
2021/12/15 14:47:24;;;;;;;6.80;5.00;;;10.80;1.00;;;;;;5052141;28;20446;-61